createdAt,value
2023-01-05T00:01:38.388Z,39.60
2023-01-05T00:04:07.659Z,39.60
2023-01-05T00:06:37.257Z,39.20
2023-01-05T00:09:05.835Z,39.40
2023-01-05T00:11:51.610Z,39.70
2023-01-05T00:14:40.149Z,39.60
2023-01-05T00:17:30.064Z,39.60
2023-01-05T00:20:15.948Z,39.20
2023-01-05T00:22:48.476Z,39.40
2023-01-05T00:25:19.342Z,39.70
2023-01-05T00:27:50.648Z,39.40
2023-01-05T00:30:21.956Z,39.30
2023-01-05T00:32:51.991Z,38.80
2023-01-05T00:35:20.645Z,39.50
2023-01-05T00:37:49.868Z,39.30
2023-01-05T00:40:21.365Z,39.50
2023-01-05T00:42:49.675Z,39.50
2023-01-05T00:45:21.193Z,39.70
2023-01-05T00:47:51.850Z,39.20
2023-01-05T00:50:21.539Z,39.70
2023-01-05T00:52:50.512Z,39.50
2023-01-05T00:55:18.921Z,39.40
2023-01-05T00:57:46.865Z,39.20
2023-01-05T01:00:19.383Z,39.40
2023-01-05T01:02:47.658Z,39.50
2023-01-05T01:05:17.253Z,39.00
2023-01-05T01:07:45.470Z,38.90
2023-01-05T01:10:13.874Z,39.60
2023-01-05T01:15:10.935Z,39.40
2023-01-05T01:17:39.028Z,39.20
2023-01-05T01:20:09.096Z,39.80
2023-01-05T01:22:38.523Z,39.40
2023-01-05T01:25:07.433Z,39.20
2023-01-05T01:27:35.472Z,39.10
2023-01-05T01:30:03.539Z,39.60
2023-01-05T01:32:31.505Z,39.50
2023-01-05T01:34:59.528Z,39.30
2023-01-05T01:37:27.532Z,39.50
2023-01-05T01:39:56.847Z,38.70
2023-01-05T01:42:24.926Z,38.90
2023-01-05T01:44:57.685Z,39.70
2023-01-05T01:47:36.348Z,39.70
2023-01-05T01:50:09.809Z,39.40
2023-01-05T01:52:39.337Z,39.80
2023-01-05T01:55:09.764Z,39.50
2023-01-05T01:57:39.516Z,39.50
2023-01-05T02:00:11.108Z,39.30
2023-01-05T02:02:39.201Z,39.90
2023-01-05T02:05:12.568Z,39.60
2023-01-05T02:07:46.499Z,39.80
2023-01-05T02:10:19.069Z,39.40
2023-01-05T02:13:05.814Z,39.80
2023-01-05T02:15:44.826Z,39.90
2023-01-05T02:18:39.684Z,39.70
2023-01-05T02:21:26.153Z,40.00
2023-01-05T02:24:36.516Z,39.60
2023-01-05T02:27:39.340Z,39.90
2023-01-05T02:30:50.326Z,39.30
2023-01-05T02:33:29.086Z,39.70
2023-01-05T02:36:05.589Z,39.60
2023-01-05T02:38:39.130Z,39.80
2023-01-05T02:41:14.651Z,39.90
2023-01-05T02:43:45.866Z,39.30
2023-01-05T02:46:15.292Z,39.90
2023-01-05T02:48:44.980Z,39.10
2023-01-05T02:51:19.296Z,39.70
2023-01-05T02:53:50.853Z,39.90
2023-01-05T02:56:24.671Z,40.00
2023-01-05T02:58:57.628Z,40.10
2023-01-05T03:01:33.838Z,39.70
2023-01-05T03:04:07.069Z,39.80
2023-01-05T03:06:47.069Z,40.10
2023-01-05T03:09:17.315Z,40.30
2023-01-05T03:12:24.613Z,40.50
2023-01-05T03:14:56.492Z,40.30
2023-01-05T03:17:34.361Z,40.50
2023-01-05T03:20:03.497Z,40.50
2023-01-05T03:22:51.215Z,40.70
2023-01-05T03:25:40.259Z,40.60
2023-01-05T03:28:32.250Z,40.70
2023-01-05T03:31:23.392Z,40.70
2023-01-05T03:34:19.655Z,40.40
2023-01-05T03:36:53.952Z,41.00
2023-01-05T03:39:26.530Z,40.60
2023-01-05T03:41:55.442Z,40.20
2023-01-05T03:44:23.856Z,40.60
2023-01-05T03:46:52.887Z,40.70
2023-01-05T03:49:22.210Z,40.60
2023-01-05T03:51:50.175Z,40.80
2023-01-05T03:54:18.221Z,40.50
2023-01-05T03:56:46.415Z,40.50
2023-01-05T03:59:14.391Z,40.80
2023-01-05T04:01:42.592Z,41.00
2023-01-05T04:04:10.653Z,40.80
2023-01-05T04:06:40.028Z,40.90
2023-01-05T04:09:08.093Z,40.70
2023-01-05T04:11:36.081Z,40.70
2023-01-05T04:14:04.056Z,40.70
2023-01-05T04:16:32.104Z,40.70
2023-01-05T04:19:00.118Z,40.40
2023-01-05T04:21:28.147Z,40.50
2023-01-05T04:23:57.459Z,40.60
2023-01-05T04:26:25.445Z,40.70
2023-01-05T04:28:53.471Z,40.60
2023-01-05T04:31:21.604Z,40.50
2023-01-05T04:33:49.651Z,40.30
2023-01-05T04:36:17.671Z,40.40
2023-01-05T04:38:45.606Z,40.60
2023-01-05T04:41:14.930Z,40.30
2023-01-05T04:43:42.845Z,40.50
2023-01-05T04:46:11.163Z,40.50
2023-01-05T04:48:39.196Z,40.40
2023-01-05T04:51:07.308Z,40.30
2023-01-05T04:53:35.356Z,40.20
2023-01-05T04:56:03.372Z,40.50
2023-01-05T04:58:32.724Z,40.30
2023-01-05T05:01:00.748Z,40.40
2023-01-05T05:03:33.002Z,40.30
2023-01-05T05:06:01.485Z,40.60
2023-01-05T05:08:29.585Z,40.40
2023-01-05T05:10:57.635Z,40.10
2023-01-05T05:13:25.661Z,40.30
2023-01-05T05:15:55.153Z,40.50
2023-01-05T05:18:24.406Z,40.10
2023-01-05T05:20:54.273Z,40.20
2023-01-05T05:23:22.733Z,40.40
2023-01-05T05:25:52.094Z,40.10
2023-01-05T05:28:20.298Z,40.10
2023-01-05T05:30:50.291Z,40.50
2023-01-05T05:33:19.695Z,40.60
2023-01-05T05:35:47.687Z,40.30
2023-01-05T05:38:15.878Z,40.40
2023-01-05T05:40:44.386Z,40.40
2023-01-05T05:43:12.351Z,40.10
2023-01-05T05:45:43.653Z,40.30
2023-01-05T05:48:16.024Z,40.30
2023-01-05T05:50:46.041Z,40.20
2023-01-05T05:53:14.163Z,40.20
2023-01-05T05:55:42.385Z,40.40
2023-01-05T05:58:10.382Z,40.10
2023-01-05T06:00:38.368Z,40.10
2023-01-05T06:03:06.601Z,40.20
2023-01-05T06:05:34.778Z,40.20
2023-01-05T06:08:04.362Z,40.30
2023-01-05T06:10:32.424Z,39.90
2023-01-05T06:13:00.494Z,40.20
2023-01-05T06:15:28.482Z,39.70
2023-01-05T06:17:56.459Z,40.10
2023-01-05T06:20:24.615Z,40.30
2023-01-05T06:22:52.664Z,40.00
2023-01-05T06:25:22.005Z,40.20
2023-01-05T06:27:50.053Z,39.70
2023-01-05T06:30:18.342Z,40.30
2023-01-05T06:32:46.401Z,40.30
2023-01-05T06:35:14.389Z,40.30
2023-01-05T06:37:42.440Z,40.30
2023-01-05T06:40:11.886Z,40.20
2023-01-05T06:42:41.590Z,40.20
2023-01-05T06:45:13.676Z,40.30
2023-01-05T06:47:41.940Z,40.40
2023-01-05T06:50:10.683Z,40.30
2023-01-05T06:52:40.117Z,40.20
2023-01-05T06:55:10.214Z,39.60
2023-01-05T06:57:38.599Z,40.30
2023-01-05T07:00:12.488Z,40.10
2023-01-05T07:02:40.749Z,40.10
2023-01-05T07:05:10.042Z,40.00
2023-01-05T07:07:38.274Z,40.30
2023-01-05T07:10:08.112Z,40.60
2023-01-05T07:12:36.306Z,41.50
2023-01-05T07:15:06.058Z,40.40
2023-01-05T07:17:36.487Z,41.20
2023-01-05T07:20:05.017Z,41.00
2023-01-05T07:22:33.256Z,41.00
2023-01-05T07:25:01.286Z,41.30
2023-01-05T07:27:29.405Z,41.20
2023-01-05T07:29:57.346Z,41.50
2023-01-05T07:32:25.419Z,41.30
2023-01-05T07:34:55.992Z,41.50
2023-01-05T07:37:25.475Z,41.40
2023-01-05T07:39:54.004Z,41.50
2023-01-05T07:42:22.051Z,41.40
2023-01-05T07:44:50.084Z,41.20
2023-01-05T07:47:18.125Z,41.20
2023-01-05T07:49:46.432Z,40.90
2023-01-05T07:52:17.003Z,41.00
2023-01-05T07:54:45.168Z,41.10
2023-01-05T07:57:13.161Z,41.50
2023-01-05T07:59:41.139Z,41.00
2023-01-05T08:02:10.818Z,41.10
2023-01-05T08:04:38.982Z,41.40
2023-01-05T08:07:09.904Z,41.50
2023-01-05T08:09:56.966Z,41.30
2023-01-05T08:12:25.013Z,41.50
2023-01-05T08:14:52.957Z,41.50
2023-01-05T08:17:20.953Z,41.60
2023-01-05T08:19:49.417Z,41.40
2023-01-05T08:22:17.454Z,41.10
2023-01-05T08:24:46.781Z,36.90
2023-01-05T08:27:14.782Z,40.50
2023-01-05T08:29:42.762Z,39.90
2023-01-05T08:32:10.822Z,40.00
2023-01-05T08:34:39.012Z,39.40
2023-01-05T08:37:07.010Z,39.40
2023-01-05T08:39:35.909Z,39.60
2023-01-05T08:42:05.331Z,39.70
2023-01-05T08:44:33.292Z,39.10
2023-01-05T08:47:01.270Z,39.40
2023-01-05T08:49:29.297Z,38.70
2023-01-05T08:51:57.335Z,39.70
2023-01-05T08:54:25.292Z,39.60
2023-01-05T08:56:53.287Z,39.80
2023-01-05T08:59:22.900Z,39.80
2023-01-05T09:01:51.280Z,39.70
2023-01-05T09:04:19.661Z,39.50
2023-01-05T09:06:47.659Z,39.70
2023-01-05T09:09:15.683Z,39.90
2023-01-05T09:11:43.714Z,39.80
2023-01-05T09:14:14.670Z,39.70
2023-01-05T09:19:32.258Z,39.10
2023-01-05T09:22:00.209Z,39.50
2023-01-05T09:24:28.369Z,40.00
2023-01-05T09:26:57.215Z,39.60
2023-01-05T09:29:25.280Z,39.50
2023-01-05T09:31:54.699Z,38.70
2023-01-05T09:34:22.863Z,38.80
2023-01-05T09:36:50.921Z,38.80
2023-01-05T09:39:18.920Z,38.80
2023-01-05T09:41:50.680Z,39.00
2023-01-05T09:44:31.553Z,39.20
2023-01-05T09:47:06.347Z,39.20
2023-01-05T09:49:35.888Z,38.80
2023-01-05T09:52:09.436Z,39.60
2023-01-05T09:54:39.895Z,39.00
2023-01-05T09:57:18.290Z,38.70
2023-01-05T09:59:49.671Z,38.20
2023-01-05T10:02:27.065Z,38.90
2023-01-05T10:04:56.467Z,39.30
2023-01-05T10:07:41.488Z,39.50
2023-01-05T10:10:28.105Z,39.20
2023-01-05T10:13:05.400Z,38.50
2023-01-05T10:15:41.567Z,38.90
2023-01-05T10:18:17.327Z,38.30
2023-01-05T10:21:03.419Z,37.70
2023-01-05T10:23:55.945Z,38.70
2023-01-05T10:26:39.836Z,37.00
2023-01-05T10:29:25.409Z,37.70
2023-01-05T10:31:59.294Z,37.80
2023-01-05T10:34:51.081Z,38.10
2023-01-05T10:37:40.832Z,37.70
2023-01-05T10:40:22.846Z,37.60
2023-01-05T10:43:06.136Z,38.10
2023-01-05T10:45:34.290Z,38.30
2023-01-05T10:48:02.323Z,38.50
2023-01-05T10:50:38.086Z,37.80
2023-01-05T10:53:12.387Z,38.50
2023-01-05T10:55:51.342Z,38.40
2023-01-05T10:58:24.838Z,38.40
2023-01-05T11:00:56.743Z,38.80
2023-01-05T11:04:14.819Z,38.30
2023-01-05T11:06:28.451Z,37.30
2023-01-05T11:08:56.753Z,38.00
2023-01-05T11:11:26.961Z,38.20
2023-01-05T11:13:58.238Z,38.00
2023-01-05T11:16:29.841Z,38.00
2023-01-05T11:19:01.506Z,37.90
2023-01-05T11:21:44.361Z,37.80
2023-01-05T11:24:30.041Z,38.50
2023-01-05T11:27:01.387Z,37.60
2023-01-05T11:29:29.948Z,37.80
2023-01-05T11:32:02.542Z,37.70
2023-01-05T11:34:43.127Z,37.90
2023-01-05T11:37:25.574Z,37.80
2023-01-05T11:39:56.534Z,37.70
2023-01-05T11:42:32.237Z,38.20
2023-01-05T11:45:03.656Z,39.00
2023-01-05T11:47:41.353Z,38.40
2023-01-05T11:50:22.474Z,38.20
2023-01-05T11:52:54.777Z,38.20
2023-01-05T11:55:35.979Z,38.10
2023-01-05T11:58:25.503Z,38.50
2023-01-05T12:01:48.933Z,38.40
2023-01-05T12:04:59.714Z,38.50
2023-01-05T12:07:34.139Z,38.10
2023-01-05T12:10:42.004Z,37.80
2023-01-05T12:13:23.156Z,37.60
2023-01-05T12:16:08.686Z,37.70
2023-01-05T12:19:11.071Z,37.70
2023-01-05T12:21:40.642Z,37.70
2023-01-05T12:24:40.237Z,37.30
2023-01-05T12:27:28.297Z,37.00
2023-01-05T12:34:02.058Z,36.30
2023-01-05T12:36:21.514Z,36.80
2023-01-05T12:39:05.910Z,36.60
2023-01-05T12:42:01.605Z,36.20
2023-01-05T12:45:03.196Z,35.20
2023-01-05T12:47:56.332Z,35.70
2023-01-05T12:50:33.601Z,35.20
2023-01-05T12:53:14.741Z,34.90
2023-01-05T12:55:46.978Z,35.90
2023-01-05T12:58:19.822Z,30.70
2023-01-05T13:00:50.630Z,29.30
2023-01-05T13:03:25.139Z,31.30
2023-01-05T13:06:01.099Z,32.90
2023-01-05T13:08:39.274Z,33.80
2023-01-05T13:11:16.468Z,33.40
2023-01-05T13:13:48.855Z,33.70
2023-01-05T13:16:22.680Z,34.00
2023-01-05T13:18:56.535Z,34.50
2023-01-05T13:21:26.648Z,34.80
2023-01-05T13:23:59.031Z,34.80
2023-01-05T13:26:28.015Z,35.10
2023-01-05T13:29:02.469Z,35.10
2023-01-05T13:32:09.037Z,35.00
2023-01-05T13:35:30.716Z,35.00
2023-01-05T13:38:31.438Z,35.00
2023-01-05T13:41:24.626Z,34.60
2023-01-05T13:44:39.572Z,34.60
2023-01-05T13:47:28.387Z,35.30
2023-01-05T13:50:24.441Z,35.60
2023-01-05T13:53:07.065Z,35.30
2023-01-05T13:55:41.030Z,35.10
2023-01-05T14:01:14.797Z,36.20
2023-01-05T14:03:52.963Z,36.70
2023-01-05T14:06:26.003Z,36.90
2023-01-05T14:08:58.142Z,36.90
2023-01-05T14:11:27.673Z,37.00
2023-01-05T14:13:59.516Z,37.30
2023-01-05T14:16:55.990Z,37.20
2023-01-05T14:19:51.482Z,37.30
2023-01-05T14:22:38.757Z,37.00
2023-01-05T14:25:49.632Z,36.90
2023-01-05T14:28:44.448Z,37.50
2023-01-05T14:31:38.344Z,37.30
2023-01-05T14:34:13.254Z,37.80
2023-01-05T14:36:46.223Z,37.80
2023-01-05T14:39:31.921Z,38.00
2023-01-05T14:42:06.667Z,37.70
2023-01-05T14:44:45.363Z,38.00
2023-01-05T14:47:14.078Z,38.10
2023-01-05T14:49:45.206Z,37.70
2023-01-05T14:52:25.782Z,37.80
2023-01-05T14:55:27.058Z,37.50
2023-01-05T14:58:03.710Z,37.50
2023-01-05T15:00:53.912Z,38.00
2023-01-05T15:03:38.343Z,37.60
2023-01-05T15:06:10.604Z,38.20
2023-01-05T15:09:22.151Z,38.20
2023-01-05T15:12:27.797Z,37.70
2023-01-05T15:15:41.826Z,38.30
2023-01-05T15:18:36.407Z,38.00
2023-01-05T15:21:35.033Z,38.20
2023-01-05T15:24:53.688Z,37.80
2023-01-05T15:27:48.259Z,38.00
2023-01-05T15:30:36.861Z,38.00
2023-01-05T15:33:14.733Z,38.30
2023-01-05T15:35:49.591Z,38.40
2023-01-05T15:38:23.180Z,38.30
2023-01-05T15:41:09.039Z,38.40
2023-01-05T15:43:40.882Z,38.80
2023-01-05T15:46:10.627Z,38.70
2023-01-05T15:48:43.121Z,38.70
2023-01-05T15:51:12.615Z,38.50
2023-01-05T15:53:44.205Z,38.80
2023-01-05T15:56:31.187Z,39.10
2023-01-05T15:59:00.348Z,38.90
2023-01-05T16:01:30.245Z,39.40
2023-01-05T16:04:09.265Z,38.80
2023-01-05T16:06:40.682Z,39.40
2023-01-05T16:09:12.738Z,39.30
2023-01-05T16:11:45.030Z,38.60
2023-01-05T16:14:19.467Z,39.60
2023-01-05T16:16:54.540Z,39.40
2023-01-05T16:19:28.498Z,39.60
2023-01-05T16:22:01.267Z,39.30
2023-01-05T16:24:35.112Z,38.80
2023-01-05T16:27:06.249Z,39.00
2023-01-05T16:29:39.144Z,39.00
2023-01-05T16:32:32.607Z,39.40
2023-01-05T16:35:24.407Z,38.60
2023-01-05T16:38:24.368Z,39.00
2023-01-05T16:41:13.585Z,38.90
2023-01-05T16:43:55.869Z,38.80
2023-01-05T16:46:39.924Z,38.50
2023-01-05T16:49:29.063Z,38.90
2023-01-05T16:51:58.233Z,39.10
2023-01-05T16:54:36.644Z,38.70
2023-01-05T16:57:29.224Z,38.30
2023-01-05T16:59:58.862Z,38.80
2023-01-05T17:02:48.911Z,38.90
2023-01-05T17:05:20.502Z,38.10
2023-01-05T17:08:04.948Z,38.50
2023-01-05T17:10:33.854Z,38.60
2023-01-05T17:13:05.840Z,38.50
2023-01-05T17:15:37.132Z,38.70
2023-01-05T17:18:17.686Z,38.60
2023-01-05T17:20:47.355Z,38.60
2023-01-05T17:23:22.104Z,38.50
2023-01-05T17:28:27.394Z,38.50
2023-01-05T17:30:56.954Z,38.90
2023-01-05T17:33:25.159Z,37.90
2023-01-05T17:35:53.483Z,39.00
2023-01-05T17:38:21.631Z,38.60
2023-01-05T17:40:50.486Z,38.80
2023-01-05T17:43:20.117Z,38.60
2023-01-05T17:45:48.516Z,38.70
2023-01-05T17:48:18.403Z,38.50
2023-01-05T17:50:46.669Z,37.70
2023-01-05T17:53:14.666Z,38.70
2023-01-05T17:55:43.978Z,38.70
2023-01-05T17:58:15.055Z,38.80
2023-01-05T18:03:22.148Z,39.10
2023-01-05T18:05:53.050Z,39.00
2023-01-05T18:08:22.090Z,39.00
2023-01-05T18:10:50.203Z,38.90
2023-01-05T18:13:21.592Z,39.40
2023-01-05T18:15:52.911Z,39.30
2023-01-05T18:18:22.927Z,39.20
2023-01-05T18:20:51.765Z,39.50
2023-01-05T18:23:20.851Z,39.00
2023-01-05T18:25:48.831Z,39.30
2023-01-05T18:28:16.880Z,39.00
2023-01-05T18:30:45.336Z,38.60
2023-01-05T18:33:13.527Z,39.20
2023-01-05T18:35:44.015Z,39.00
2023-01-05T18:38:12.185Z,38.90
2023-01-05T18:40:40.244Z,39.00
2023-01-05T18:43:08.217Z,39.40
2023-01-05T18:45:40.215Z,39.10
2023-01-05T18:48:09.026Z,39.40
2023-01-05T18:50:42.101Z,38.90
2023-01-05T18:53:13.026Z,39.10
2023-01-05T18:55:42.431Z,39.20
2023-01-05T18:58:11.016Z,39.60
2023-01-05T19:00:40.684Z,40.10
2023-01-05T19:03:09.941Z,39.70
2023-01-05T19:05:40.824Z,39.90
2023-01-05T19:08:09.249Z,39.50
2023-01-05T19:10:39.465Z,39.90
2023-01-05T19:13:07.834Z,40.00
2023-01-05T19:15:37.291Z,40.00
2023-01-05T19:18:06.488Z,40.50
2023-01-05T19:20:34.696Z,39.80
2023-01-05T19:23:03.022Z,40.00
2023-01-05T19:25:31.404Z,39.40
2023-01-05T19:28:02.283Z,39.80
2023-01-05T19:30:31.604Z,40.20
2023-01-05T19:33:01.016Z,39.70
2023-01-05T19:35:30.964Z,39.70
2023-01-05T19:38:00.351Z,39.70
2023-01-05T19:40:28.541Z,39.70
2023-01-05T19:42:57.307Z,39.70
2023-01-05T19:45:26.854Z,39.70
2023-01-05T19:47:54.917Z,40.00
2023-01-05T19:50:22.915Z,40.10
2023-01-05T19:52:51.278Z,40.20
2023-01-05T19:55:19.319Z,40.90
2023-01-05T19:57:47.798Z,40.30
2023-01-05T20:00:17.508Z,40.50
2023-01-05T20:02:46.888Z,41.00
2023-01-05T20:05:14.930Z,40.50
2023-01-05T20:07:43.721Z,40.80
2023-01-05T20:10:11.934Z,40.30
2023-01-05T20:12:39.919Z,40.40
2023-01-05T20:15:08.909Z,40.60
2023-01-05T20:17:36.921Z,40.20
2023-01-05T20:20:07.254Z,40.40
2023-01-05T20:22:35.244Z,40.70
2023-01-05T20:25:03.213Z,40.30
2023-01-05T20:27:31.197Z,40.50
2023-01-05T20:29:59.181Z,40.60
2023-01-05T20:32:28.901Z,40.10
2023-01-05T20:35:00.551Z,40.90
2023-01-05T20:37:32.057Z,40.60
2023-01-05T20:40:02.297Z,40.60
2023-01-05T20:42:31.217Z,41.90
2023-01-05T20:45:00.911Z,41.70
2023-01-05T20:47:31.848Z,40.10
2023-01-05T20:50:07.402Z,40.90
2023-01-05T20:52:36.839Z,41.10
2023-01-05T20:55:05.331Z,40.60
2023-01-05T20:57:33.303Z,41.00
2023-01-05T21:00:01.255Z,41.30
2023-01-05T21:02:29.235Z,41.40
2023-01-05T21:04:57.251Z,40.90
2023-01-05T21:07:25.366Z,41.00
2023-01-05T21:09:54.719Z,41.60
2023-01-05T21:12:22.826Z,41.20
2023-01-05T21:14:51.062Z,41.00
2023-01-05T21:17:19.347Z,41.60
2023-01-05T21:19:47.319Z,41.40
2023-01-05T21:22:15.451Z,41.60
2023-01-05T21:24:45.120Z,41.30
2023-01-05T21:27:14.478Z,41.40
2023-01-05T21:29:43.524Z,41.60
2023-01-05T21:32:11.506Z,41.70
2023-01-05T21:34:39.468Z,41.70
2023-01-05T21:37:07.496Z,41.50
2023-01-05T21:39:35.644Z,41.20
2023-01-05T21:42:21.213Z,41.70
2023-01-05T21:44:50.603Z,41.90
2023-01-05T21:47:18.638Z,42.10
2023-01-05T21:49:46.618Z,42.00
2023-01-05T21:52:32.178Z,42.00
2023-01-05T21:55:26.131Z,41.80
2023-01-05T21:57:54.757Z,41.50
2023-01-05T22:00:25.458Z,41.80
2023-01-05T22:02:53.412Z,42.10
2023-01-05T22:05:21.639Z,42.00
2023-01-05T22:07:49.630Z,42.10
2023-01-05T22:10:17.858Z,41.90
2023-01-05T22:12:45.816Z,41.90
2023-01-05T22:15:13.845Z,42.30
2023-01-05T22:17:43.786Z,41.90
2023-01-05T22:20:13.813Z,42.30
2023-01-05T22:22:41.797Z,42.20
2023-01-05T22:25:10.748Z,42.30
2023-01-05T22:27:38.812Z,41.70
2023-01-05T22:30:08.986Z,41.90
2023-01-05T22:32:37.465Z,41.70
2023-01-05T22:35:07.541Z,36.50
2023-01-05T22:37:35.497Z,38.10
2023-01-05T22:40:03.577Z,39.30
2023-01-05T22:42:31.589Z,41.10
2023-01-05T22:44:59.671Z,44.30
2023-01-05T22:47:27.649Z,43.10
2023-01-05T22:49:55.629Z,40.90
2023-01-05T22:52:24.974Z,40.20
2023-01-05T22:54:53.183Z,39.30
2023-01-05T22:57:21.179Z,39.20
2023-01-05T22:59:49.165Z,39.80
2023-01-05T23:02:17.261Z,38.70
2023-01-05T23:04:45.284Z,39.20
2023-01-05T23:07:13.444Z,39.70
2023-01-05T23:09:42.826Z,39.30
2023-01-05T23:12:12.100Z,39.80
2023-01-05T23:14:40.696Z,39.80
2023-01-05T23:17:12.176Z,39.90
2023-01-05T23:19:40.409Z,40.00
2023-01-05T23:22:10.782Z,40.00
2023-01-05T23:24:39.489Z,39.40
2023-01-05T23:27:08.951Z,39.60
2023-01-05T23:29:37.108Z,40.00
2023-01-05T23:32:05.729Z,40.20
2023-01-05T23:34:33.712Z,40.40
2023-01-05T23:37:02.830Z,40.50
2023-01-05T23:39:30.809Z,40.50
2023-01-05T23:41:58.787Z,40.70
2023-01-05T23:44:28.088Z,40.40
2023-01-05T23:46:56.143Z,40.10
2023-01-05T23:49:24.229Z,40.50
2023-01-05T23:51:52.178Z,40.80
2023-01-05T23:54:20.385Z,40.90
2023-01-05T23:56:48.390Z,41.00
2023-01-05T23:59:16.403Z,40.90
